Minto, North Dakota
Current Conditions -  °F | °C
As of 3:58 AM on Thursday 18 Dec 2014 (Local Time) from KRDR Reporting Station
Clear Clear  
Wind Chill:   Ceiling: Unl
Heat Index:   Visibility: 10mi
Dew Point:   Wind: 2mph
Humidity: 93%   Direction: 180°S
Pressure: 30.28"   Gusts: NA
Location:  48.29°N, 97.37°W
Report Text: KRDR 180958Z AUTO 18002KT 10SM CLR M16/M17 A3028 RMK AO2 SLP281 T11651174
Loading
Personal Weather Stations






























Interactive Weather Map New forecast layout! Learn more

10-Day Weather Forecast

Advertisements
Track Severe Weather on mobile